URSSURMT

Guest
Details From URSS - Sochi
To URMT - SHPAKOVSKOYE
Flight Number -
Tags generated
Created
Modified
Stats Distance 137 nm / 253 km
Max Altitude 15,300 ft / 4,663 m
Waypoints 3
Social Downloads 0
Likes 0
Share VATSIM

Download

Looking for another format? Having issues loading an existing format? Contact us
Advertisement - Login to hide

Notes

Basic altitude profile: - Ascent Rate: 2500ft/min - Ascent Speed: 250kts - Cruise Altitude: 35000ft - Cruise Speed: 420kts - Descent Rate: 1500ft/min - Descent Speed: 250kts

Route

URSS ATREL URMT

ID Type Via Altitude Latitude Longitude Leg Dist Tot Dist Heading (true) Name
O URSS APT - 0 ft / 0 m 43.44475˚ 39.94730˚ - 0 nm - Sochi
ATREL FIX - 15,300 ft / 4,663 m 44.25306˚ 40.94528˚ 64 nm 64 nm 41° / 42° -
O URMT APT - 0 ft / 0 m 45.10926˚ 42.11283˚ 71 nm 136 nm 44° / 45° SHPAKOVSKOYE

Altitude Profile

Advertisement - Login to hide

URSS

Details ICAO URSS (AER)
Name Sochi
Region Russia
Timezone Europe/Moscow (UTC+3.0)
Stats Elevation 89 ft / 27 m (AMSL)
Location 43.444749° 39.947302°
Runways 2
Magnetic Variation 7.002° E

METAR

URSS 220230Z 08002MPS 9999 FEW013 SCT100 18/16 Q1018 R06/090070 R02/090070 NOSIG RMK R02/05002MPS MT OBSC QFE762

Decode

TAF

TAF URSS 220156Z 2203/2303 05005MPS 9999 SCT030 SCT100 TEMPO 2203/2206 SCT011 BECMG 2206/2207 24005G10MPS SCT030CB SCT100 TEMPO 2209/2216 VRB06G11MPS -TSRA BECMG 2216/2217 05005MPS BKN015 BKN030CB

Decode

Departure Runways

ID Width Length Bearing (true) Bearing (mag) Surface Threshold Offset Overrun Length
02 161 ft / 49 m 7,267 ft / 2,215 m 28.98° 21.98° Concrete 0 ft / 0 m 0 ft / 0 m
06 164 ft / 50 m 9,531 ft / 2,905 m 64.90° 57.90° Concrete 262 ft / 80 m 0 ft / 0 m
20 161 ft / 49 m 7,267 ft / 2,215 m 208.99° 201.99° Concrete 0 ft / 0 m 0 ft / 0 m
24 164 ft / 50 m 9,531 ft / 2,905 m 244.92° 237.92° Concrete 0 ft / 0 m 0 ft / 0 m

URMT

Details ICAO URMT (STW)
Name SHPAKOVSKOYE
Region Russia
Timezone Europe/Moscow (UTC+3.0)
Stats Elevation 1,486 ft / 453 m (AMSL)
Location 45.109257° 42.112826°
Runways 1
Magnetic Variation 7.654° E

METAR

URMT 220230Z 33002MPS CAVOK 16/15 Q1020 R25/010070 TEMPO 0300 FG OVC002 RMK QFE726

Decode

TAF

Not found

Destination Runways

ID Width Length Bearing (true) Bearing (mag) Surface Threshold Offset Overrun Length
07 157 ft / 48 m 8,626 ft / 2,629 m 76.07° 68.42° Asphalt 0 ft / 0 m 140 ft / 43 m
25 157 ft / 48 m 8,626 ft / 2,629 m 256.09° 248.44° Asphalt 0 ft / 0 m 200 ft / 61 m

Approach Navaids

Runway Type Ident Frequency Range Bearing (true) Bearing (mag) Slope Elevation
07 Localiser IOP 110.50 MHz 18 nm / 33 km 75.43° 67.78° - 1,486 ft / 453 m (AMSL)
07 Glidescope IOP 110.50 MHz 10 nm / 19 km 76.08° 68.43° 3.20° 1,486 ft / 453 m (AMSL)
25 Localiser IKT 110.70 MHz 18 nm / 33 km 256.64° 248.99° - 1,486 ft / 453 m (AMSL)
25 Glidescope IKT 110.70 MHz 10 nm / 19 km 256.08° 248.43° 2.70° 1,486 ft / 453 m (AMSL)

Popular Alternatives